Irishtown, Illinois
Current Conditions -  °F | °C
As of 11:35 PM on Monday 26 Jan 2015 (Local Time) from KENL Reporting Station
Overcast Overcast  
Wind Chill: -3°   Ceiling: 6500
Heat Index:   Visibility: 10mi
Dew Point: -2°   Wind: 5mph
Humidity: 90%   Direction: 170°S
Pressure: 29.89"   Gusts: NA
Location:  38.7527°N, 89.3215°W
Report Text: KENL 270535Z AUTO 17004KT 10SM OVC065 00/M01 A2989 RMK AO2 T00001015
Loading
Personal Weather Stations






























Interactive Weather Map New forecast layout! Learn more

10-Day Weather Forecast

Advertisements
Track Severe Weather on mobile